createdAt,value
2019-02-23T00:04:47.434Z,4.87
2019-02-23T00:09:40.799Z,4.47
2019-02-23T00:14:34.455Z,11.80
2019-02-23T00:19:27.833Z,7.37
2019-02-23T00:24:21.525Z,9.23
2019-02-23T00:29:14.903Z,6.00
2019-02-23T00:34:08.583Z,6.77
2019-02-23T00:39:01.963Z,7.73
2019-02-23T00:43:55.321Z,6.60
2019-02-23T00:48:48.684Z,6.07
2019-02-23T00:53:42.116Z,6.67
2019-02-23T00:58:35.472Z,7.43
2019-02-23T01:03:28.859Z,8.37
2019-02-23T01:08:22.232Z,7.17
2019-02-23T01:13:15.587Z,6.97
2019-02-23T01:18:08.986Z,8.50
2019-02-23T01:23:02.680Z,6.33
2019-02-23T01:27:56.044Z,6.87
2019-02-23T01:32:49.407Z,6.60
2019-02-23T01:37:42.814Z,5.63
2019-02-23T01:42:36.947Z,8.03
2019-02-23T01:47:30.488Z,6.37
2019-02-23T01:52:23.867Z,5.80
2019-02-23T01:57:17.267Z,6.00
2019-02-23T02:02:10.615Z,5.87
2019-02-23T02:07:04.018Z,5.63
2019-02-23T02:11:57.385Z,5.17
2019-02-23T02:16:50.760Z,7.23
2019-02-23T02:21:44.483Z,5.43
2019-02-23T02:26:38.142Z,6.47
2019-02-23T02:31:31.811Z,6.20
2019-02-23T02:36:25.207Z,5.47
2019-02-23T02:41:18.573Z,4.47
2019-02-23T02:46:11.959Z,5.13
2019-02-23T02:51:05.326Z,5.73
2019-02-23T02:55:58.719Z,4.47
2019-02-23T03:00:52.091Z,5.30
2019-02-23T03:05:45.491Z,4.80
2019-02-23T03:10:38.864Z,6.10
2019-02-23T03:15:32.337Z,6.03
2019-02-23T03:20:36.372Z,5.20
2019-02-23T03:25:19.304Z,5.13
2019-02-23T03:30:12.664Z,4.90
2019-02-23T03:35:06.068Z,6.33
2019-02-23T03:39:59.442Z,6.27
2019-02-23T03:44:53.135Z,5.67
2019-02-23T03:49:46.820Z,5.70
2019-02-23T03:54:40.208Z,5.07
2019-02-23T03:59:33.577Z,5.23
2019-02-23T04:04:27.260Z,5.47
2019-02-23T04:09:20.623Z,5.50
2019-02-23T04:14:14.333Z,6.33
2019-02-23T04:19:07.792Z,5.87
2019-02-23T04:24:01.246Z,6.00
2019-02-23T04:28:54.613Z,5.33
2019-02-23T04:33:48.174Z,5.50
2019-02-23T04:38:41.544Z,4.50
2019-02-23T04:43:35.541Z,6.77
2019-02-23T04:48:29.205Z,5.73
2019-02-23T04:53:22.896Z,5.83
2019-02-23T04:58:16.277Z,6.10
2019-02-23T05:03:10.255Z,4.57
2019-02-23T05:08:04.004Z,6.17
2019-02-23T05:12:58.161Z,5.43
2019-02-23T05:17:51.710Z,6.60
2019-02-23T05:22:45.065Z,5.00
2019-02-23T05:27:38.690Z,5.87
2019-02-23T05:32:32.051Z,5.57
2019-02-23T05:37:25.462Z,5.27
2019-02-23T05:42:18.833Z,5.50
2019-02-23T05:47:12.191Z,5.83
2019-02-23T05:52:05.571Z,5.40
2019-02-23T05:56:58.974Z,6.67
2019-02-23T06:01:52.434Z,7.10
2019-02-23T06:06:45.812Z,4.80
2019-02-23T06:11:39.219Z,5.50
2019-02-23T06:16:32.810Z,5.33
2019-02-23T06:21:26.183Z,5.60
2019-02-23T06:26:19.602Z,5.60
2019-02-23T06:31:12.968Z,5.80
2019-02-23T06:36:06.360Z,5.27
2019-02-23T06:40:59.780Z,5.60
2019-02-23T06:45:53.798Z,6.40
2019-02-23T06:50:47.158Z,6.47
2019-02-23T06:55:40.754Z,4.93
2019-02-23T07:00:34.112Z,6.37
2019-02-23T07:05:27.816Z,4.97
2019-02-23T07:10:21.197Z,6.37
2019-02-23T07:15:14.575Z,6.57
2019-02-23T07:20:07.953Z,4.80
2019-02-23T07:25:01.314Z,5.60
2019-02-23T07:29:54.683Z,5.23
2019-02-23T07:34:48.109Z,5.20
2019-02-23T07:39:41.500Z,6.83
2019-02-23T07:44:34.896Z,4.30
2019-02-23T07:49:28.276Z,5.27
2019-02-23T07:54:21.914Z,6.57
2019-02-23T07:59:15.280Z,5.67
2019-02-23T08:04:08.670Z,5.47
2019-02-23T08:09:02.049Z,4.57
2019-02-23T08:13:55.477Z,7.13
2019-02-23T08:18:48.851Z,5.17
2019-02-23T08:23:42.513Z,5.83
2019-02-23T08:28:36.243Z,5.23
2019-02-23T08:33:29.898Z,5.40
2019-02-23T08:38:23.267Z,6.00
2019-02-23T08:43:16.636Z,6.10
2019-02-23T08:48:10.323Z,6.83
2019-02-23T08:53:04.030Z,5.57
2019-02-23T08:57:57.424Z,6.63
2019-02-23T09:02:51.067Z,5.13
2019-02-23T09:07:44.489Z,5.50
2019-02-23T09:12:37.866Z,5.33
2019-02-23T09:17:31.517Z,6.10
2019-02-23T09:22:24.882Z,6.07
2019-02-23T09:27:18.603Z,5.27
2019-02-23T09:32:12.074Z,7.23
2019-02-23T09:37:05.977Z,5.90
2019-02-23T09:42:07.240Z,6.17
2019-02-23T09:46:53.658Z,5.00
2019-02-23T09:51:47.082Z,6.20
2019-02-23T09:56:42.612Z,6.17
2019-02-23T10:01:36.025Z,5.90
2019-02-23T10:06:29.417Z,13.03
2019-02-23T10:11:22.988Z,11.03
2019-02-23T10:16:16.661Z,13.27
2019-02-23T10:21:10.424Z,12.43
2019-02-23T10:26:04.078Z,11.67
2019-02-23T10:30:57.474Z,11.47
2019-02-23T10:35:50.853Z,10.70
2019-02-23T10:40:44.285Z,11.60
2019-02-23T10:45:37.896Z,11.63
2019-02-23T10:50:31.252Z,10.97
2019-02-23T10:55:24.636Z,12.20
2019-02-23T11:00:19.879Z,12.73
2019-02-23T11:05:13.334Z,9.57
2019-02-23T11:10:06.686Z,11.27
2019-02-23T11:15:00.093Z,11.27
2019-02-23T11:19:53.678Z,8.63
2019-02-23T11:24:47.401Z,9.47
2019-02-23T11:29:41.143Z,9.10
2019-02-23T11:34:34.749Z,7.57
2019-02-23T11:39:28.144Z,11.83
2019-02-23T11:44:21.810Z,8.77
2019-02-23T11:49:15.188Z,10.47
2019-02-23T11:54:08.869Z,9.37
2019-02-23T11:59:02.383Z,11.10
2019-02-23T12:03:55.913Z,7.90
2019-02-23T12:08:49.298Z,5.67
2019-02-23T12:13:43.009Z,8.80
2019-02-23T12:18:36.976Z,9.67
2019-02-23T12:23:30.379Z,8.87
2019-02-23T12:28:24.051Z,8.43
2019-02-23T12:33:17.414Z,6.23
2019-02-23T12:38:10.826Z,9.23
2019-02-23T12:43:04.217Z,7.90
2019-02-23T12:47:57.592Z,8.93
2019-02-23T12:52:50.968Z,3.90
2019-02-23T12:57:44.334Z,4.97
2019-02-23T13:02:37.782Z,5.53
2019-02-23T13:07:31.378Z,5.50
2019-02-23T13:12:36.262Z,7.17
2019-02-23T13:17:37.644Z,8.33
2019-02-23T13:22:37.976Z,8.77
2019-02-23T13:27:56.625Z,7.03
2019-02-23T13:33:00.255Z,6.13
2019-02-23T13:38:00.505Z,5.07
2019-02-23T13:43:16.056Z,5.23
2019-02-23T13:48:38.042Z,6.47
2019-02-23T13:53:56.731Z,5.70
2019-02-23T13:59:13.208Z,5.57
2019-02-23T14:04:24.735Z,5.17
2019-02-23T14:09:36.314Z,7.13
2019-02-23T14:14:54.992Z,4.97
2019-02-23T14:20:06.529Z,6.13
2019-02-23T14:25:18.425Z,5.77
2019-02-23T14:30:23.711Z,5.73
2019-02-23T14:35:24.976Z,6.83
2019-02-23T14:40:40.627Z,5.13
2019-02-23T14:45:45.836Z,7.37
2019-02-23T14:50:53.288Z,10.23
2019-02-23T14:56:09.416Z,7.03
2019-02-23T15:01:25.447Z,8.47
2019-02-23T15:06:50.635Z,7.80
2019-02-23T15:12:06.339Z,14.83
2019-02-23T15:17:19.375Z,6.53
2019-02-23T15:22:31.045Z,10.13
2019-02-23T15:27:36.700Z,8.40
2019-02-23T15:33:01.606Z,8.30
2019-02-23T15:38:14.416Z,9.87
2019-02-23T15:43:36.615Z,8.47
2019-02-23T15:49:07.770Z,10.73
2019-02-23T15:54:01.686Z,10.13
2019-02-23T15:58:55.342Z,9.80
2019-02-23T16:03:49.033Z,11.10
2019-02-23T16:08:42.753Z,12.67
2019-02-23T16:13:36.405Z,11.23
2019-02-23T16:18:30.095Z,12.23
2019-02-23T16:23:34.861Z,12.13
2019-02-23T16:28:17.169Z,16.60
2019-02-23T16:33:10.948Z,12.40
2019-02-23T16:38:04.491Z,11.73
2019-02-23T16:42:57.929Z,11.47
2019-02-23T16:47:51.595Z,11.53
2019-02-23T16:52:45.695Z,12.83
2019-02-23T16:57:39.461Z,10.90
2019-02-23T17:02:35.839Z,8.83
2019-02-23T17:07:26.350Z,6.90
2019-02-23T17:12:19.705Z,7.03
2019-02-23T17:17:13.376Z,6.87
2019-02-23T17:22:06.766Z,7.00
2019-02-23T17:27:00.167Z,5.63
2019-02-23T17:31:53.547Z,4.80
2019-02-23T17:36:47.213Z,6.00
2019-02-23T17:41:40.590Z,4.40
2019-02-23T17:46:33.972Z,5.60
2019-02-23T17:51:27.336Z,5.37
2019-02-23T17:56:20.721Z,4.47
2019-02-23T18:01:14.104Z,6.73
2019-02-23T18:06:07.506Z,5.20
2019-02-23T18:11:01.213Z,5.67
2019-02-23T18:15:54.591Z,5.80
2019-02-23T18:20:48.362Z,5.43
2019-02-23T18:25:41.638Z,4.90
2019-02-23T18:30:35.043Z,5.37
2019-02-23T18:35:28.674Z,6.13
2019-02-23T18:40:22.226Z,5.17
2019-02-23T18:45:15.624Z,5.53
2019-02-23T18:50:09.007Z,4.47
2019-02-23T18:55:03.675Z,4.33
2019-02-23T18:59:55.959Z,4.80
2019-02-23T19:04:49.345Z,4.93
2019-02-23T19:09:42.709Z,5.47
2019-02-23T19:14:36.339Z,4.63
2019-02-23T19:19:29.727Z,4.70
2019-02-23T19:24:23.396Z,4.33
2019-02-23T19:29:16.776Z,4.53
2019-02-23T19:34:10.150Z,5.73
2019-02-23T19:39:03.531Z,5.33
2019-02-23T19:43:57.260Z,6.27
2019-02-23T19:48:50.740Z,5.17
2019-02-23T19:53:44.106Z,5.30
2019-02-23T19:58:37.922Z,5.27
2019-02-23T20:03:30.896Z,5.03
2019-02-23T20:08:24.449Z,4.40
2019-02-23T20:13:18.185Z,6.07
2019-02-23T20:18:11.617Z,7.03
2019-02-23T20:23:05.003Z,6.37
2019-02-23T20:27:58.554Z,5.23
2019-02-23T20:32:51.956Z,8.33
2019-02-23T20:37:45.640Z,6.30
2019-02-23T20:42:39.023Z,5.43
2019-02-23T20:47:32.697Z,6.07
2019-02-23T20:52:26.085Z,6.73
2019-02-23T20:57:19.747Z,4.93
2019-02-23T21:02:13.229Z,6.03
2019-02-23T21:07:06.879Z,5.87
2019-02-23T21:12:00.260Z,5.23
2019-02-23T21:16:53.656Z,6.00
2019-02-23T21:21:47.027Z,5.10
2019-02-23T21:26:40.454Z,5.23
2019-02-23T21:31:33.811Z,7.10
2019-02-23T21:36:27.197Z,6.37
2019-02-23T21:41:20.567Z,5.83
2019-02-23T21:46:14.298Z,5.60
2019-02-23T21:51:07.850Z,5.77
2019-02-23T21:56:01.522Z,6.23
2019-02-23T22:00:54.934Z,5.73
2019-02-23T22:05:48.593Z,6.20
2019-02-23T22:10:42.279Z,6.50
2019-02-23T22:15:35.982Z,8.77
2019-02-23T22:20:29.816Z,8.40
2019-02-23T22:25:24.712Z,11.97
2019-02-23T22:30:19.214Z,10.58
2019-02-23T22:35:13.635Z,14.13
2019-02-23T22:40:07.530Z,12.90
2019-02-23T22:45:00.926Z,13.20
2019-02-23T22:49:54.882Z,13.83
2019-02-23T22:54:48.599Z,14.63
2019-02-23T22:59:42.152Z,14.67
2019-02-23T23:04:35.645Z,16.50
2019-02-23T23:09:29.062Z,16.13
2019-02-23T23:14:22.672Z,15.40
2019-02-23T23:19:16.397Z,14.87
2019-02-23T23:24:10.065Z,15.15
2019-02-23T23:29:03.746Z,16.53
2019-02-23T23:33:57.422Z,14.30
2019-02-23T23:38:51.125Z,14.77
2019-02-23T23:43:44.828Z,14.90
2019-02-23T23:48:38.457Z,16.53
2019-02-23T23:53:32.138Z,16.70
2019-02-23T23:58:25.524Z,15.70
